createdAt,value
2023-01-15T00:00:58.667Z,99841.94
2023-01-15T00:02:21.567Z,99836.34
2023-01-15T00:03:24.606Z,99835.43
2023-01-15T00:04:27.474Z,99837.98
2023-01-15T00:05:30.827Z,99825.34
2023-01-15T00:06:42.974Z,99824.33
2023-01-15T00:07:45.870Z,99828.03
2023-01-15T00:08:50.137Z,99825.73
2023-01-15T00:09:53.047Z,99819.46
2023-01-15T00:10:56.505Z,99813.78
2023-01-15T00:11:59.469Z,99815.66
2023-01-15T00:13:02.854Z,99812.77
2023-01-15T00:14:05.760Z,99814.34
2023-01-15T00:15:08.971Z,99811.70
2023-01-15T00:16:15.002Z,99801.77
2023-01-15T00:17:18.170Z,99795.44
2023-01-15T00:18:21.031Z,99795.86
2023-01-15T00:19:23.940Z,99804.31
2023-01-15T00:20:26.856Z,99807.57
2023-01-15T00:21:30.166Z,99802.59
2023-01-15T00:22:33.051Z,99799.74
2023-01-15T00:23:54.608Z,99788.66
2023-01-15T00:25:36.169Z,99791.52
2023-01-15T00:26:58.663Z,99797.45
2023-01-15T00:28:02.013Z,99800.64
2023-01-15T00:29:05.852Z,99792.36
2023-01-15T00:30:12.676Z,99791.71
2023-01-15T00:31:15.607Z,99789.55
2023-01-15T00:32:18.515Z,99786.17
2023-01-15T00:33:21.367Z,99776.55
2023-01-15T00:34:25.761Z,99769.92
2023-01-15T00:35:28.652Z,99771.56
2023-01-15T00:36:31.578Z,99773.00
2023-01-15T00:37:35.165Z,99781.67
2023-01-15T00:38:39.615Z,99786.38
2023-01-15T00:39:42.579Z,99782.35
2023-01-15T00:40:45.916Z,99774.62
2023-01-15T00:41:50.137Z,99773.96
2023-01-15T00:42:54.498Z,99774.21
2023-01-15T00:43:57.835Z,99780.39
2023-01-15T00:45:07.379Z,99777.77
2023-01-15T00:46:10.538Z,99769.80
2023-01-15T00:47:15.285Z,99764.70
2023-01-15T00:48:18.398Z,99767.77
2023-01-15T00:49:22.864Z,99770.79
2023-01-15T00:50:25.795Z,99774.08
2023-01-15T00:51:28.704Z,99770.55
2023-01-15T00:52:31.964Z,99760.88
2023-01-15T00:53:35.182Z,99754.05
2023-01-15T00:54:38.170Z,99751.84
2023-01-15T00:55:41.087Z,99746.66
2023-01-15T00:56:44.957Z,99742.48
2023-01-15T00:57:47.842Z,99746.90
2023-01-15T00:58:50.739Z,99744.78
2023-01-15T00:59:53.738Z,99749.48
2023-01-15T01:00:58.541Z,99744.60
2023-01-15T01:02:01.696Z,99743.04
2023-01-15T01:03:04.751Z,99742.04
2023-01-15T01:04:07.823Z,99740.77
2023-01-15T01:05:11.111Z,99739.73
2023-01-15T01:06:13.974Z,99738.54
2023-01-15T01:07:18.519Z,99737.89
2023-01-15T01:08:21.731Z,99725.76
2023-01-15T01:09:24.588Z,99732.14
2023-01-15T01:10:27.934Z,99735.19
2023-01-15T01:11:34.366Z,99742.17
2023-01-15T01:12:37.820Z,99743.02
2023-01-15T01:13:41.127Z,99740.82
2023-01-15T01:14:44.696Z,99733.02
2023-01-15T01:15:47.769Z,99734.35
2023-01-15T01:16:50.706Z,99741.40
2023-01-15T01:17:53.574Z,99743.50
2023-01-15T01:18:58.504Z,99747.79
2023-01-15T01:20:01.574Z,99741.34
2023-01-15T01:21:05.171Z,99735.00
2023-01-15T01:22:08.132Z,99724.92
2023-01-15T01:23:11.041Z,99728.63
2023-01-15T01:24:16.641Z,99728.09
2023-01-15T01:25:20.334Z,99727.91
2023-01-15T01:26:23.212Z,99729.61
2023-01-15T01:27:26.096Z,99729.05
2023-01-15T01:28:28.972Z,99718.35
2023-01-15T01:29:32.089Z,99717.40
2023-01-15T01:30:35.206Z,99723.48
2023-01-15T01:31:38.218Z,99730.23
2023-01-15T01:32:44.309Z,99720.82
2023-01-15T01:33:54.828Z,99719.45
2023-01-15T01:34:57.726Z,99723.34
2023-01-15T01:36:01.169Z,99727.27
2023-01-15T01:37:04.110Z,99721.80
2023-01-15T01:38:08.995Z,99719.41
2023-01-15T01:39:18.391Z,99716.74
2023-01-15T01:40:21.301Z,99724.60
2023-01-15T01:41:24.750Z,99722.88
2023-01-15T01:42:30.716Z,99720.08
2023-01-15T01:44:10.178Z,99718.71
2023-01-15T01:45:29.588Z,99708.17
2023-01-15T01:46:34.837Z,99714.11
2023-01-15T01:47:37.806Z,99710.13
2023-01-15T01:48:40.683Z,99698.59
2023-01-15T01:49:47.456Z,99695.29
2023-01-15T01:50:51.395Z,99686.16
2023-01-15T01:52:02.596Z,99687.58
2023-01-15T01:53:16.748Z,99684.95
2023-01-15T01:54:23.200Z,99676.92
2023-01-15T01:55:28.388Z,99669.35
2023-01-15T01:56:34.980Z,99662.48
2023-01-15T01:57:39.719Z,99656.05
2023-01-15T01:58:42.944Z,99666.38
2023-01-15T01:59:46.985Z,99660.17
2023-01-15T02:00:52.183Z,99650.42
2023-01-15T02:01:55.366Z,99654.88
2023-01-15T02:02:59.556Z,99652.83
2023-01-15T02:04:06.351Z,99652.02
2023-01-15T02:05:13.710Z,99649.71
2023-01-15T02:06:17.128Z,99652.70
2023-01-15T02:07:20.497Z,99655.25
2023-01-15T02:08:24.230Z,99656.70
2023-01-15T02:09:27.230Z,99660.99
2023-01-15T02:10:30.306Z,99662.44
2023-01-15T02:11:33.376Z,99662.48
2023-01-15T02:12:40.287Z,99657.18
2023-01-15T02:14:04.617Z,99658.73
2023-01-15T02:15:32.156Z,99665.60
2023-01-15T02:16:49.956Z,99665.09
2023-01-15T02:18:06.117Z,99664.91
2023-01-15T02:19:51.836Z,99657.52
2023-01-15T02:21:22.932Z,99654.74
2023-01-15T02:22:28.555Z,99658.00
2023-01-15T02:23:54.036Z,99653.46
2023-01-15T02:25:08.383Z,99656.35
2023-01-15T02:27:01.403Z,99657.23
2023-01-15T02:28:16.004Z,99647.61
2023-01-15T02:29:45.812Z,99644.04
2023-01-15T02:30:58.358Z,99655.17
2023-01-15T02:32:10.852Z,99655.39
2023-01-15T02:33:20.271Z,99652.88
2023-01-15T02:34:25.045Z,99661.70
2023-01-15T02:35:38.323Z,99658.11
2023-01-15T02:36:45.568Z,99645.12
2023-01-15T02:38:00.333Z,99637.45
2023-01-15T02:39:08.625Z,99640.19
2023-01-15T02:40:13.747Z,99641.77
2023-01-15T02:41:21.178Z,99646.75
2023-01-15T02:42:27.725Z,99638.09
2023-01-15T02:43:35.833Z,99628.83
2023-01-15T02:44:45.436Z,99623.81
2023-01-15T02:45:51.799Z,99627.17
2023-01-15T02:46:56.677Z,99635.42
2023-01-15T02:48:12.511Z,99637.92
2023-01-15T02:49:19.462Z,99624.42
2023-01-15T02:50:29.127Z,99618.73
2023-01-15T02:51:42.559Z,99611.63
2023-01-15T02:52:59.744Z,99609.48
2023-01-15T02:54:07.171Z,99595.61
2023-01-15T02:55:19.131Z,99581.20
2023-01-15T02:56:26.600Z,99578.66
2023-01-15T02:57:33.277Z,99574.23
2023-01-15T02:58:39.802Z,99577.87
2023-01-15T02:59:48.219Z,99583.87
2023-01-15T03:00:55.949Z,99584.61
2023-01-15T03:02:03.443Z,99581.07
2023-01-15T03:03:18.414Z,99581.08
2023-01-15T03:04:37.052Z,99579.61
2023-01-15T03:05:58.102Z,99564.30
2023-01-15T03:07:15.553Z,99564.04
2023-01-15T03:08:19.077Z,99575.17
2023-01-15T03:09:22.280Z,99570.47
2023-01-15T03:10:38.462Z,99567.32
2023-01-15T03:12:06.756Z,99557.70
2023-01-15T03:13:21.176Z,99555.95
2023-01-15T03:15:08.611Z,99550.31
2023-01-15T03:16:35.440Z,99552.05
2023-01-15T03:17:51.862Z,99550.30
2023-01-15T03:19:18.263Z,99543.92
2023-01-15T03:20:32.545Z,99544.40
2023-01-15T03:24:58.177Z,99546.42
2023-01-15T03:26:01.367Z,99554.01
2023-01-15T03:27:05.092Z,99561.73
2023-01-15T03:28:10.076Z,99559.21
2023-01-15T03:29:16.107Z,99555.67
2023-01-15T03:30:21.397Z,99559.00
2023-01-15T03:31:25.367Z,99548.69
2023-01-15T03:32:29.265Z,99538.04
2023-01-15T03:33:34.437Z,99530.22
2023-01-15T03:34:50.172Z,99539.59
2023-01-15T03:35:58.736Z,99534.52
2023-01-15T03:37:28.583Z,99534.36
2023-01-15T03:38:36.053Z,99530.23
2023-01-15T03:39:39.779Z,99521.79
2023-01-15T03:41:19.249Z,99513.91
2023-01-15T03:42:44.797Z,99517.52
2023-01-15T03:43:55.665Z,99521.43
2023-01-15T03:45:33.238Z,99516.45
2023-01-15T03:47:16.365Z,99515.75
2023-01-15T03:48:31.198Z,99520.94
2023-01-15T03:49:55.297Z,99528.33
2023-01-15T03:51:17.361Z,99533.27
2023-01-15T03:52:28.392Z,99522.88
2023-01-15T03:53:38.999Z,99513.73
2023-01-15T03:54:46.317Z,99515.61
2023-01-15T03:56:03.732Z,99513.31
2023-01-15T03:57:23.197Z,99500.83
2023-01-15T03:58:45.110Z,99496.66
2023-01-15T03:59:55.838Z,99486.26
2023-01-15T04:01:02.625Z,99488.49
2023-01-15T04:02:10.205Z,99488.17
2023-01-15T04:03:15.669Z,99481.27
2023-01-15T04:04:18.838Z,99481.36
2023-01-15T04:05:24.073Z,99480.94
2023-01-15T04:06:30.992Z,99482.34
2023-01-15T04:07:35.465Z,99481.99
2023-01-15T04:08:41.697Z,99485.60
2023-01-15T04:09:44.882Z,99484.73
2023-01-15T04:10:57.171Z,99479.01
2023-01-15T04:12:02.965Z,99468.27
2023-01-15T04:13:09.569Z,99465.29
2023-01-15T04:14:14.994Z,99476.92
2023-01-15T04:15:20.717Z,99470.42
2023-01-15T04:16:29.651Z,99474.58
2023-01-15T04:17:32.612Z,99475.02
2023-01-15T04:18:35.626Z,99470.01
2023-01-15T04:19:38.645Z,99468.19
2023-01-15T04:20:45.111Z,99465.25
2023-01-15T04:21:49.161Z,99461.42
2023-01-15T04:22:52.059Z,99458.96
2023-01-15T04:23:55.030Z,99462.61
2023-01-15T04:24:57.958Z,99458.70
2023-01-15T04:26:00.889Z,99455.48
2023-01-15T04:27:04.303Z,99452.48
2023-01-15T04:28:08.779Z,99446.59
2023-01-15T04:29:11.779Z,99436.80
2023-01-15T04:30:17.546Z,99433.21
2023-01-15T04:31:20.710Z,99424.65
2023-01-15T04:32:23.658Z,99422.98
2023-01-15T04:33:27.323Z,99424.14
2023-01-15T04:34:30.280Z,99413.23
2023-01-15T04:35:33.212Z,99418.02
2023-01-15T04:36:36.088Z,99414.90
2023-01-15T04:37:39.093Z,99409.94
2023-01-15T04:38:41.981Z,99412.64
2023-01-15T04:39:44.940Z,99412.92
2023-01-15T04:41:06.271Z,99410.57
2023-01-15T04:42:34.251Z,99410.33
2023-01-15T04:43:55.872Z,99412.60
2023-01-15T04:44:58.773Z,99418.18
2023-01-15T04:46:01.676Z,99414.88
2023-01-15T04:47:04.582Z,99408.35
2023-01-15T04:48:07.433Z,99401.91
2023-01-15T04:49:13.350Z,99400.95
2023-01-15T04:50:16.833Z,99404.24
2023-01-15T04:51:19.816Z,99406.23
2023-01-15T04:52:22.674Z,99409.79
2023-01-15T04:53:26.334Z,99407.34
2023-01-15T04:54:29.720Z,99407.14
2023-01-15T04:55:32.669Z,99410.37
2023-01-15T04:56:44.635Z,99401.06
2023-01-15T04:57:50.039Z,99400.60
2023-01-15T04:58:52.950Z,99405.80
2023-01-15T04:59:56.538Z,99403.90
2023-01-15T05:01:01.031Z,99396.16
2023-01-15T05:02:06.543Z,99399.61
2023-01-15T05:03:09.781Z,99395.71
2023-01-15T05:04:12.686Z,99396.96
2023-01-15T05:05:16.429Z,99401.68
2023-01-15T05:06:19.402Z,99402.08
2023-01-15T05:07:22.281Z,99401.84
2023-01-15T05:08:25.121Z,99398.10
2023-01-15T05:09:27.994Z,99392.91
2023-01-15T05:10:31.002Z,99393.46
2023-01-15T05:11:38.759Z,99396.98
2023-01-15T05:12:41.743Z,99395.80
2023-01-15T05:13:44.612Z,99394.80
2023-01-15T05:14:47.547Z,99393.95
2023-01-15T05:15:50.837Z,99390.55
2023-01-15T05:16:53.752Z,99385.63
2023-01-15T05:17:56.915Z,99386.13
2023-01-15T05:19:03.739Z,99387.56
2023-01-15T05:20:08.396Z,99376.60
2023-01-15T05:21:18.829Z,99378.36
2023-01-15T05:22:21.740Z,99372.05
2023-01-15T05:23:24.597Z,99367.98
2023-01-15T05:24:27.488Z,99373.84
2023-01-15T05:25:30.355Z,99375.17
2023-01-15T05:26:34.156Z,99382.27
2023-01-15T05:27:37.635Z,99379.92
2023-01-15T05:28:40.810Z,99381.49
2023-01-15T05:29:43.821Z,99376.52
2023-01-15T05:30:46.742Z,99374.83
2023-01-15T05:31:49.672Z,99376.98
2023-01-15T05:32:52.555Z,99380.94
2023-01-15T05:33:55.978Z,99374.73
2023-01-15T05:34:58.927Z,99374.05
2023-01-15T05:36:10.385Z,99368.86
2023-01-15T05:37:13.392Z,99368.80
2023-01-15T05:38:16.312Z,99372.69
2023-01-15T05:39:19.325Z,99374.66
2023-01-15T05:40:22.649Z,99374.38
2023-01-15T05:41:44.879Z,99375.55
2023-01-15T05:42:47.716Z,99375.99
2023-01-15T05:43:50.731Z,99377.06
2023-01-15T05:44:53.772Z,99375.89
2023-01-15T05:46:02.275Z,99380.08
2023-01-15T05:47:06.092Z,99379.42
2023-01-15T05:48:08.980Z,99377.95
2023-01-15T05:49:15.512Z,99380.81
2023-01-15T05:50:18.744Z,99375.04
2023-01-15T05:51:22.992Z,99377.95
2023-01-15T05:52:25.931Z,99379.55
2023-01-15T05:53:29.188Z,99371.95
2023-01-15T05:54:35.493Z,99360.98
2023-01-15T05:55:38.366Z,99364.73
2023-01-15T05:56:41.496Z,99363.55
2023-01-15T05:57:44.369Z,99360.65
2023-01-15T05:58:47.664Z,99357.97
2023-01-15T05:59:50.634Z,99351.07
2023-01-15T06:00:55.192Z,99355.30
2023-01-15T06:01:59.060Z,99360.35
2023-01-15T06:03:01.984Z,99357.63
2023-01-15T06:04:06.590Z,99356.92
2023-01-15T06:05:09.786Z,99360.47
2023-01-15T06:06:15.020Z,99352.75
2023-01-15T06:07:18.385Z,99347.98
2023-01-15T06:08:22.764Z,99347.48
2023-01-15T06:09:28.280Z,99347.94
2023-01-15T06:10:32.088Z,99344.27
2023-01-15T06:11:35.421Z,99337.82
2023-01-15T06:12:38.298Z,99336.22
2023-01-15T06:13:41.218Z,99340.64
2023-01-15T06:14:44.251Z,99333.01
2023-01-15T06:15:47.265Z,99334.93
2023-01-15T06:16:50.493Z,99331.28
2023-01-15T06:17:53.383Z,99329.39
2023-01-15T06:19:01.028Z,99330.84
2023-01-15T06:20:04.780Z,99327.77
2023-01-15T06:21:12.254Z,99330.85
2023-01-15T06:22:15.190Z,99331.27
2023-01-15T06:23:19.124Z,99326.19
2023-01-15T06:24:23.171Z,99323.40
2023-01-15T06:25:26.032Z,99324.48
2023-01-15T06:26:29.427Z,99320.40
2023-01-15T06:27:35.469Z,99318.58
2023-01-15T06:28:39.890Z,99315.36
2023-01-15T06:29:43.222Z,99316.06
2023-01-15T06:30:46.102Z,99315.16
2023-01-15T06:31:51.748Z,99320.04
2023-01-15T06:32:54.704Z,99312.95
2023-01-15T06:33:57.735Z,99321.54
2023-01-15T06:35:00.731Z,99322.81
2023-01-15T06:36:08.222Z,99322.13
2023-01-15T06:37:11.145Z,99325.15
2023-01-15T06:38:14.031Z,99330.92
2023-01-15T06:39:17.037Z,99346.37
2023-01-15T06:40:20.033Z,99344.11
2023-01-15T06:41:43.767Z,99339.41
2023-01-15T06:43:05.197Z,99340.30
2023-01-15T06:44:34.416Z,99336.27
2023-01-15T06:45:58.515Z,99332.55
2023-01-15T06:47:23.189Z,99324.70
2023-01-15T06:48:27.763Z,99318.73
2023-01-15T06:49:31.730Z,99310.91
2023-01-15T06:50:34.670Z,99311.34
2023-01-15T06:51:37.507Z,99316.63
2023-01-15T06:52:40.375Z,99313.32
2023-01-15T06:53:43.556Z,99314.70
2023-01-15T06:54:47.079Z,99315.59
2023-01-15T06:55:49.983Z,99311.54
2023-01-15T06:56:52.953Z,99318.63
2023-01-15T06:57:55.799Z,99320.59
2023-01-15T06:58:58.896Z,99320.63
2023-01-15T07:00:01.773Z,99318.02
2023-01-15T07:01:09.168Z,99321.59
2023-01-15T07:02:12.437Z,99318.33
2023-01-15T07:03:15.287Z,99319.52
2023-01-15T07:04:18.223Z,99311.67
2023-01-15T07:05:21.097Z,99306.24
2023-01-15T07:06:26.377Z,99310.14
2023-01-15T07:07:30.103Z,99309.91
2023-01-15T07:08:33.189Z,99310.54
2023-01-15T07:09:36.176Z,99309.42
2023-01-15T07:10:39.063Z,99307.54
2023-01-15T07:11:51.101Z,99303.40
2023-01-15T07:12:53.986Z,99303.43
2023-01-15T07:14:06.084Z,99302.46
2023-01-15T07:15:09.260Z,99301.80
2023-01-15T07:16:27.075Z,99304.09
2023-01-15T07:17:30.072Z,99302.19
2023-01-15T07:18:34.024Z,99303.98
2023-01-15T07:19:37.153Z,99307.77
2023-01-15T07:20:40.028Z,99309.30
2023-01-15T07:21:43.574Z,99306.90
2023-01-15T07:22:49.452Z,99306.15
2023-01-15T07:23:52.745Z,99305.62
2023-01-15T07:24:56.500Z,99304.46
2023-01-15T07:25:59.350Z,99302.46
2023-01-15T07:27:02.347Z,99297.92
2023-01-15T07:31:46.079Z,99292.67
2023-01-15T07:32:49.027Z,99291.00
2023-01-15T07:33:51.948Z,99286.52
2023-01-15T07:34:54.922Z,99281.38
2023-01-15T07:35:57.881Z,99284.44
2023-01-15T07:37:00.842Z,99282.98
2023-01-15T07:38:03.672Z,99285.08
2023-01-15T07:39:08.923Z,99287.08
2023-01-15T07:40:12.312Z,99277.23
2023-01-15T07:41:34.230Z,99285.86
2023-01-15T07:42:56.446Z,99280.19
2023-01-15T07:44:18.042Z,99278.16
2023-01-15T07:45:39.472Z,99279.04
2023-01-15T07:47:01.709Z,99271.48
2023-01-15T07:48:27.974Z,99277.54
2023-01-15T07:49:46.231Z,99275.06
2023-01-15T07:50:49.179Z,99273.27
2023-01-15T07:51:52.093Z,99272.54
2023-01-15T07:52:55.119Z,99274.46
2023-01-15T07:53:57.930Z,99278.40
2023-01-15T07:55:01.378Z,99270.00
2023-01-15T07:56:04.538Z,99274.04
2023-01-15T07:57:07.878Z,99268.64
2023-01-15T07:58:10.746Z,99268.61
2023-01-15T07:59:13.612Z,99273.78
2023-01-15T08:00:22.077Z,99275.19
2023-01-15T08:01:25.027Z,99266.28
2023-01-15T08:02:27.874Z,99262.63
2023-01-15T08:03:30.776Z,99263.77
2023-01-15T08:04:33.749Z,99267.05
2023-01-15T08:05:36.916Z,99263.48
2023-01-15T08:06:40.220Z,99271.04
2023-01-15T08:07:44.312Z,99270.79
2023-01-15T08:08:47.335Z,99266.84
2023-01-15T08:09:50.272Z,99267.39
2023-01-15T08:11:12.249Z,99272.30
2023-01-15T08:12:33.949Z,99267.69
2023-01-15T08:13:55.688Z,99266.36
2023-01-15T08:15:13.734Z,99262.52
2023-01-15T08:16:16.777Z,99265.09
2023-01-15T08:17:19.836Z,99268.48
2023-01-15T08:18:22.739Z,99266.61
2023-01-15T08:19:25.636Z,99263.64
2023-01-15T08:20:28.714Z,99256.73
2023-01-15T08:21:31.768Z,99253.95
2023-01-15T08:22:34.773Z,99260.62
2023-01-15T08:23:37.768Z,99259.02
2023-01-15T08:24:43.181Z,99255.76
2023-01-15T08:25:46.351Z,99245.58
2023-01-15T08:26:49.224Z,99241.73
2023-01-15T08:27:52.584Z,99248.27
2023-01-15T08:28:55.896Z,99256.73
2023-01-15T08:29:58.745Z,99253.16
2023-01-15T08:31:01.632Z,99247.04
2023-01-15T08:32:04.924Z,99239.81
2023-01-15T08:33:07.787Z,99245.68
2023-01-15T08:34:11.287Z,99248.48
2023-01-15T08:35:14.464Z,99238.69
2023-01-15T08:36:18.528Z,99242.14
2023-01-15T08:37:23.207Z,99240.23
2023-01-15T08:38:27.264Z,99233.16
2023-01-15T08:39:30.155Z,99239.20
2023-01-15T08:40:33.601Z,99246.70
2023-01-15T08:41:36.481Z,99245.38
2023-01-15T08:42:40.849Z,99241.33
2023-01-15T08:43:45.921Z,99239.14
2023-01-15T08:44:49.413Z,99231.11
2023-01-15T08:45:52.944Z,99236.94
2023-01-15T08:46:56.173Z,99233.55
2023-01-15T08:47:59.865Z,99238.54
2023-01-15T08:49:02.909Z,99240.81
2023-01-15T08:50:07.858Z,99236.33
2023-01-15T08:51:12.203Z,99236.01
2023-01-15T08:52:15.475Z,99241.48
2023-01-15T08:53:21.704Z,99241.06
2023-01-15T08:54:25.382Z,99245.08
2023-01-15T08:55:28.514Z,99235.00
2023-01-15T08:56:31.522Z,99239.31
2023-01-15T08:57:34.566Z,99244.30
2023-01-15T08:58:37.466Z,99243.98
2023-01-15T08:59:43.793Z,99236.70
2023-01-15T09:00:49.356Z,99233.08
2023-01-15T09:01:53.126Z,99240.27
2023-01-15T09:02:58.524Z,99241.87
2023-01-15T09:04:03.280Z,99239.80
2023-01-15T09:05:07.975Z,99242.64
2023-01-15T09:06:14.562Z,99238.35
2023-01-15T09:07:17.932Z,99242.75
2023-01-15T09:08:21.953Z,99243.61
2023-01-15T09:09:26.970Z,99238.95
2023-01-15T09:10:30.959Z,99235.85
2023-01-15T09:11:36.085Z,99231.91
2023-01-15T09:12:44.704Z,99237.45
2023-01-15T09:13:54.729Z,99238.64
2023-01-15T09:15:03.629Z,99238.48
2023-01-15T09:16:10.387Z,99234.31
2023-01-15T09:17:15.201Z,99232.30
2023-01-15T09:18:19.481Z,99236.39
2023-01-15T09:19:22.360Z,99229.36
2023-01-15T09:20:25.374Z,99233.38
2023-01-15T09:21:28.470Z,99228.05
2023-01-15T09:22:31.682Z,99227.31
2023-01-15T09:23:34.769Z,99229.46
2023-01-15T09:24:38.019Z,99231.49
2023-01-15T09:25:42.521Z,99234.34
2023-01-15T09:26:45.510Z,99228.92
2023-01-15T09:27:49.999Z,99226.16
2023-01-15T09:28:52.875Z,99215.27
2023-01-15T09:29:56.598Z,99211.84
2023-01-15T09:30:59.888Z,99222.80
2023-01-15T09:32:03.003Z,99227.47
2023-01-15T09:33:05.898Z,99227.91
2023-01-15T09:34:08.849Z,99229.30
2023-01-15T09:35:11.803Z,99228.23
2023-01-15T09:36:20.157Z,99217.77
2023-01-15T09:37:23.044Z,99212.40
2023-01-15T09:38:25.978Z,99216.70
2023-01-15T09:39:28.917Z,99220.02
2023-01-15T09:40:50.794Z,99221.27
2023-01-15T09:42:24.621Z,99218.73
2023-01-15T09:43:30.947Z,99217.02
2023-01-15T09:45:03.583Z,99220.93
2023-01-15T09:46:16.100Z,99219.27
2023-01-15T09:47:27.955Z,99219.65
2023-01-15T09:49:10.220Z,99211.70
2023-01-15T09:50:25.833Z,99210.84
2023-01-15T09:51:48.786Z,99210.90
2023-01-15T09:53:05.986Z,99213.65
2023-01-15T09:54:18.300Z,99209.67
2023-01-15T09:55:27.669Z,99205.34
2023-01-15T09:56:33.608Z,99203.57
2023-01-15T09:57:37.286Z,99196.02
2023-01-15T09:58:40.627Z,99201.27
2023-01-15T09:59:47.769Z,99199.88
2023-01-15T10:00:52.477Z,99199.15
2023-01-15T10:01:55.652Z,99198.89
2023-01-15T10:03:39.681Z,99193.54
2023-01-15T10:04:48.706Z,99191.09
2023-01-15T10:06:44.033Z,99187.96
2023-01-15T10:07:58.151Z,99195.12
2023-01-15T10:09:16.086Z,99190.89
2023-01-15T10:10:24.189Z,99186.71
2023-01-15T10:12:01.197Z,99189.79
2023-01-15T10:13:17.094Z,99186.46
2023-01-15T10:14:39.441Z,99183.14
2023-01-15T10:15:46.487Z,99173.56
2023-01-15T10:16:49.531Z,99182.22
2023-01-15T10:17:59.742Z,99179.83
2023-01-15T10:19:04.165Z,99182.80
2023-01-15T10:20:16.271Z,99178.61
2023-01-15T10:21:45.363Z,99180.77
2023-01-15T10:23:10.190Z,99176.27
2023-01-15T10:24:28.940Z,99175.98
2023-01-15T10:25:41.970Z,99177.04
2023-01-15T10:26:54.935Z,99172.91
2023-01-15T10:28:04.480Z,99168.21
2023-01-15T10:29:13.950Z,99165.06
2023-01-15T10:30:59.599Z,99160.73
2023-01-15T10:32:19.349Z,99157.39
2023-01-15T10:34:03.017Z,99161.45
2023-01-15T10:35:41.870Z,99160.02
2023-01-15T10:36:57.985Z,99152.84
2023-01-15T10:38:15.392Z,99160.98
2023-01-15T10:39:30.950Z,99152.01
2023-01-15T10:40:49.135Z,99150.90
2023-01-15T10:42:05.491Z,99152.25
2023-01-15T10:43:14.384Z,99151.04
2023-01-15T10:44:57.130Z,99148.05
2023-01-15T10:46:02.144Z,99143.63
2023-01-15T10:47:12.854Z,99138.27
2023-01-15T10:48:44.356Z,99143.86
2023-01-15T10:50:00.979Z,99141.17
2023-01-15T10:51:21.496Z,99137.70
2023-01-15T10:52:32.606Z,99137.02
2023-01-15T10:56:37.634Z,99134.48
2023-01-15T10:58:10.149Z,99129.17
2023-01-15T10:59:22.534Z,99131.00
2023-01-15T11:00:26.739Z,99136.21
2023-01-15T11:01:38.965Z,99132.41
2023-01-15T11:02:51.928Z,99129.52
2023-01-15T11:03:55.038Z,99135.33
2023-01-15T11:06:16.688Z,99125.61
2023-01-15T11:10:41.538Z,99130.48
2023-01-15T11:12:01.482Z,99129.16
2023-01-15T11:13:52.537Z,99128.90
2023-01-15T11:17:33.385Z,99121.86
2023-01-15T11:19:01.022Z,99119.77
2023-01-15T11:20:14.813Z,99121.50
2023-01-15T11:21:42.986Z,99117.33
2023-01-15T11:22:45.960Z,99118.56
2023-01-15T11:23:50.656Z,99120.71
2023-01-15T11:25:00.594Z,99118.89
2023-01-15T11:26:04.347Z,99123.95
2023-01-15T11:27:07.724Z,99122.51
2023-01-15T11:28:15.406Z,99125.62
2023-01-15T11:29:28.890Z,99121.59
2023-01-15T11:30:39.913Z,99118.52
2023-01-15T11:31:42.874Z,99117.02
2023-01-15T11:32:56.824Z,99115.48
2023-01-15T11:34:02.498Z,99118.39
2023-01-15T11:35:08.533Z,99116.41
2023-01-15T11:36:26.089Z,99111.04
2023-01-15T11:37:30.145Z,99115.17
2023-01-15T11:38:48.305Z,99115.45
2023-01-15T11:39:56.565Z,99108.48
2023-01-15T11:41:01.979Z,99110.80
2023-01-15T11:42:25.673Z,99113.23
2023-01-15T11:43:49.151Z,99106.64
2023-01-15T11:45:16.264Z,99102.63
2023-01-15T11:46:58.041Z,99101.23
2023-01-15T11:48:19.636Z,99102.35
2023-01-15T11:49:41.106Z,99097.48
2023-01-15T11:50:52.864Z,99099.31
2023-01-15T11:51:58.556Z,99089.86
2023-01-15T11:53:03.212Z,99103.35
2023-01-15T11:54:11.431Z,99100.67
2023-01-15T11:55:24.438Z,99093.35
2023-01-15T11:56:31.521Z,99096.43
2023-01-15T11:57:39.018Z,99095.04
2023-01-15T11:58:46.958Z,99087.77
2023-01-15T11:59:57.890Z,99087.60
2023-01-15T12:01:01.720Z,99092.77
2023-01-15T12:02:23.739Z,99087.55
2023-01-15T12:03:30.800Z,99091.12
2023-01-15T12:04:56.128Z,99091.21
2023-01-15T12:06:06.341Z,99088.80
2023-01-15T12:07:14.265Z,99087.09
2023-01-15T12:08:32.712Z,99087.58
2023-01-15T12:10:00.268Z,99087.36
2023-01-15T12:11:28.383Z,99087.31
2023-01-15T12:12:51.407Z,99085.98
2023-01-15T12:14:16.504Z,99083.95
2023-01-15T12:15:55.421Z,99083.48
2023-01-15T12:17:37.790Z,99082.74
2023-01-15T12:21:02.103Z,99087.84
2023-01-15T12:22:42.200Z,99085.73
2023-01-15T12:24:00.289Z,99084.59
2023-01-15T12:25:15.382Z,99085.84
2023-01-15T12:26:34.800Z,99085.73
2023-01-15T12:27:37.756Z,99086.81
2023-01-15T12:28:53.555Z,99083.00
2023-01-15T12:29:59.719Z,99079.33
2023-01-15T12:31:17.311Z,99084.23
2023-01-15T12:32:26.560Z,99078.25
2023-01-15T12:33:54.232Z,99085.48
2023-01-15T12:35:22.895Z,99085.98
2023-01-15T12:36:42.244Z,99084.98
2023-01-15T12:37:51.040Z,99084.30
2023-01-15T12:39:14.221Z,99080.30
2023-01-15T12:40:29.334Z,99070.69
2023-01-15T12:41:57.939Z,99078.27
2023-01-15T12:43:19.446Z,99079.04
2023-01-15T12:45:08.162Z,99069.39
2023-01-15T12:46:17.287Z,99070.05
2023-01-15T12:47:25.990Z,99083.16
2023-01-15T12:48:41.594Z,99085.95
2023-01-15T12:49:51.610Z,99077.70
2023-01-15T12:50:58.067Z,99084.52
2023-01-15T12:52:27.489Z,99079.84
2023-01-15T12:53:49.842Z,99082.85
2023-01-15T12:55:19.345Z,99083.61
2023-01-15T12:56:29.186Z,99082.02
2023-01-15T12:57:34.777Z,99084.13
2023-01-15T12:58:44.486Z,99081.66
2023-01-15T12:59:57.352Z,99073.55
2023-01-15T13:01:22.054Z,99077.90
2023-01-15T13:02:52.536Z,99083.23
2023-01-15T13:04:23.308Z,99079.33
2023-01-15T13:06:08.765Z,99075.46
2023-01-15T13:07:18.717Z,99082.23
2023-01-15T13:08:35.355Z,99077.45
2023-01-15T13:10:07.149Z,99081.66
2023-01-15T13:11:13.416Z,99080.95
2023-01-15T13:12:17.431Z,99082.35
2023-01-15T13:13:24.824Z,99078.38
2023-01-15T13:14:27.780Z,99081.23
2023-01-15T13:15:38.301Z,99081.42
2023-01-15T13:16:54.657Z,99077.92
2023-01-15T13:18:24.414Z,99079.98
2023-01-15T13:19:42.653Z,99077.61
2023-01-15T13:20:45.499Z,99082.45
2023-01-15T13:21:52.982Z,99077.83
2023-01-15T13:23:04.891Z,99072.39
2023-01-15T13:24:07.699Z,99079.39
2023-01-15T13:25:45.100Z,99083.23
2023-01-15T13:27:09.865Z,99076.95
2023-01-15T13:28:32.074Z,99078.94
2023-01-15T13:29:38.009Z,99083.83
2023-01-15T13:30:57.062Z,99085.92
2023-01-15T13:32:15.149Z,99084.91
2023-01-15T13:33:27.111Z,99086.64
2023-01-15T13:34:42.104Z,99083.41
2023-01-15T13:35:51.241Z,99084.27
2023-01-15T13:37:10.102Z,99077.16
2023-01-15T13:38:22.675Z,99086.52
2023-01-15T13:39:34.801Z,99089.96
2023-01-15T13:40:50.447Z,99087.71
2023-01-15T13:42:13.263Z,99083.73
2023-01-15T13:43:36.935Z,99087.65
2023-01-15T13:44:47.634Z,99088.62
2023-01-15T13:45:51.652Z,99090.35
2023-01-15T13:47:03.762Z,99086.20
2023-01-15T13:48:37.668Z,99089.96
2023-01-15T13:49:47.567Z,99087.77
2023-01-15T13:50:58.316Z,99088.79
2023-01-15T13:52:04.777Z,99082.16
2023-01-15T13:53:23.103Z,99085.34
2023-01-15T13:54:27.689Z,99088.29
2023-01-15T13:55:38.532Z,99089.86